sensor_id;sensor_type;location;lat;lon;timestamp;P1;durP1;ratioP1;P2;durP2;ratioP2
22531;SDS011;11432;46.924;7.114;2023-01-29T00:00:36;14.25;;;9.00;;
22531;SDS011;11432;46.924;7.114;2023-01-29T00:03:01;14.20;;;8.82;;
22531;SDS011;11432;46.924;7.114;2023-01-29T00:05:27;13.32;;;8.70;;
22531;SDS011;11432;46.924;7.114;2023-01-29T00:07:53;13.23;;;8.13;;
22531;SDS011;11432;46.924;7.114;2023-01-29T00:10:20;13.00;;;8.65;;
22531;SDS011;11432;46.924;7.114;2023-01-29T00:12:46;12.57;;;8.13;;
22531;SDS011;11432;46.924;7.114;2023-01-29T00:15:11;13.18;;;8.73;;
22531;SDS011;11432;46.924;7.114;2023-01-29T00:17:37;11.82;;;8.27;;
22531;SDS011;11432;46.924;7.114;2023-01-29T00:20:03;12.77;;;8.20;;
22531;SDS011;11432;46.924;7.114;2023-01-29T00:22:29;13.90;;;7.70;;
22531;SDS011;11432;46.924;7.114;2023-01-29T00:24:54;12.00;;;7.88;;
22531;SDS011;11432;46.924;7.114;2023-01-29T00:27:20;13.70;;;8.77;;
22531;SDS011;11432;46.924;7.114;2023-01-29T00:29:45;13.73;;;9.38;;
22531;SDS011;11432;46.924;7.114;2023-01-29T00:32:31;11.95;;;7.88;;
22531;SDS011;11432;46.924;7.114;2023-01-29T00:34:56;13.35;;;8.23;;
22531;SDS011;11432;46.924;7.114;2023-01-29T00:37:22;12.95;;;8.80;;
22531;SDS011;11432;46.924;7.114;2023-01-29T00:39:48;13.20;;;8.00;;
22531;SDS011;11432;46.924;7.114;2023-01-29T00:42:13;17.23;;;9.77;;
22531;SDS011;11432;46.924;7.114;2023-01-29T00:44:57;12.13;;;8.23;;
22531;SDS011;11432;46.924;7.114;2023-01-29T00:47:23;11.88;;;7.35;;
22531;SDS011;11432;46.924;7.114;2023-01-29T00:49:55;11.65;;;6.38;;
22531;SDS011;11432;46.924;7.114;2023-01-29T00:52:21;13.10;;;7.78;;
22531;SDS011;11432;46.924;7.114;2023-01-29T00:54:47;13.63;;;7.68;;
22531;SDS011;11432;46.924;7.114;2023-01-29T00:57:13;12.30;;;7.90;;
22531;SDS011;11432;46.924;7.114;2023-01-29T00:59:39;12.05;;;8.10;;
22531;SDS011;11432;46.924;7.114;2023-01-29T01:02:04;12.45;;;8.02;;
22531;SDS011;11432;46.924;7.114;2023-01-29T01:04:48;12.20;;;7.95;;
22531;SDS011;11432;46.924;7.114;2023-01-29T01:07:14;13.27;;;7.80;;
22531;SDS011;11432;46.924;7.114;2023-01-29T01:09:39;12.35;;;7.85;;
22531;SDS011;11432;46.924;7.114;2023-01-29T01:12:23;13.38;;;7.80;;
22531;SDS011;11432;46.924;7.114;2023-01-29T01:14:49;9.80;;;6.43;;
22531;SDS011;11432;46.924;7.114;2023-01-29T01:17:15;14.82;;;8.60;;
22531;SDS011;11432;46.924;7.114;2023-01-29T01:19:40;14.73;;;8.82;;
22531;SDS011;11432;46.924;7.114;2023-01-29T01:22:06;13.57;;;8.45;;
22531;SDS011;11432;46.924;7.114;2023-01-29T01:24:32;12.30;;;8.00;;
22531;SDS011;11432;46.924;7.114;2023-01-29T01:26:57;11.20;;;7.82;;
22531;SDS011;11432;46.924;7.114;2023-01-29T01:29:23;11.55;;;7.53;;
22531;SDS011;11432;46.924;7.114;2023-01-29T01:31:48;12.60;;;8.60;;
22531;SDS011;11432;46.924;7.114;2023-01-29T01:34:14;13.02;;;7.80;;
22531;SDS011;11432;46.924;7.114;2023-01-29T01:36:40;11.20;;;7.38;;
22531;SDS011;11432;46.924;7.114;2023-01-29T01:39:05;12.43;;;7.53;;
22531;SDS011;11432;46.924;7.114;2023-01-29T01:41:31;10.77;;;7.22;;
22531;SDS011;11432;46.924;7.114;2023-01-29T01:43:57;13.02;;;8.40;;
22531;SDS011;11432;46.924;7.114;2023-01-29T01:46:27;12.00;;;7.63;;
22531;SDS011;11432;46.924;7.114;2023-01-29T01:48:59;12.32;;;7.65;;
22531;SDS011;11432;46.924;7.114;2023-01-29T01:51:34;12.02;;;7.65;;
22531;SDS011;11432;46.924;7.114;2023-01-29T01:54:05;13.80;;;8.63;;
22531;SDS011;11432;46.924;7.114;2023-01-29T01:56:46;11.52;;;7.70;;
22531;SDS011;11432;46.924;7.114;2023-01-29T01:59:18;10.75;;;6.85;;
22531;SDS011;11432;46.924;7.114;2023-01-29T02:01:46;11.38;;;7.32;;
22531;SDS011;11432;46.924;7.114;2023-01-29T02:04:16;12.95;;;7.60;;
22531;SDS011;11432;46.924;7.114;2023-01-29T02:07:02;11.02;;;7.18;;
22531;SDS011;11432;46.924;7.114;2023-01-29T02:09:59;10.85;;;7.25;;
22531;SDS011;11432;46.924;7.114;2023-01-29T02:12:35;12.15;;;7.50;;
22531;SDS011;11432;46.924;7.114;2023-01-29T02:15:02;9.48;;;6.68;;
22531;SDS011;11432;46.924;7.114;2023-01-29T02:17:28;11.27;;;7.50;;
22531;SDS011;11432;46.924;7.114;2023-01-29T02:20:11;11.38;;;6.82;;
22531;SDS011;11432;46.924;7.114;2023-01-29T02:31:07;9.95;;;6.50;;
22531;SDS011;11432;46.924;7.114;2023-01-29T02:36:48;10.48;;;7.25;;
22531;SDS011;11432;46.924;7.114;2023-01-29T02:39:22;11.23;;;7.18;;
22531;SDS011;11432;46.924;7.114;2023-01-29T02:42:23;10.00;;;6.70;;
22531;SDS011;11432;46.924;7.114;2023-01-29T02:47:29;10.05;;;6.50;;
22531;SDS011;11432;46.924;7.114;2023-01-29T02:52:49;11.50;;;7.32;;
22531;SDS011;11432;46.924;7.114;2023-01-29T02:55:29;10.25;;;6.72;;
22531;SDS011;11432;46.924;7.114;2023-01-29T02:57:59;10.65;;;7.00;;
22531;SDS011;11432;46.924;7.114;2023-01-29T03:00:43;9.38;;;6.25;;
22531;SDS011;11432;46.924;7.114;2023-01-29T03:03:13;9.30;;;6.38;;
22531;SDS011;11432;46.924;7.114;2023-01-29T03:08:32;9.52;;;6.43;;
22531;SDS011;11432;46.924;7.114;2023-01-29T03:11:07;9.82;;;6.75;;
22531;SDS011;11432;46.924;7.114;2023-01-29T03:18:48;10.57;;;6.95;;
22531;SDS011;11432;46.924;7.114;2023-01-29T03:21:30;12.18;;;6.75;;
22531;SDS011;11432;46.924;7.114;2023-01-29T03:24:45;9.82;;;5.95;;
22531;SDS011;11432;46.924;7.114;2023-01-29T03:27:32;9.80;;;6.65;;
22531;SDS011;11432;46.924;7.114;2023-01-29T03:30:20;9.95;;;6.75;;
22531;SDS011;11432;46.924;7.114;2023-01-29T03:33:08;11.70;;;7.20;;
22531;SDS011;11432;46.924;7.114;2023-01-29T03:35:37;10.63;;;7.30;;
22531;SDS011;11432;46.924;7.114;2023-01-29T03:38:08;10.00;;;6.93;;
22531;SDS011;11432;46.924;7.114;2023-01-29T03:40:38;10.13;;;6.85;;
22531;SDS011;11432;46.924;7.114;2023-01-29T03:43:11;10.05;;;7.13;;
22531;SDS011;11432;46.924;7.114;2023-01-29T03:48:57;11.82;;;7.45;;
22531;SDS011;11432;46.924;7.114;2023-01-29T03:57:14;10.35;;;6.68;;
22531;SDS011;11432;46.924;7.114;2023-01-29T03:59:45;11.27;;;7.15;;
22531;SDS011;11432;46.924;7.114;2023-01-29T04:02:21;11.50;;;7.68;;
22531;SDS011;11432;46.924;7.114;2023-01-29T04:04:55;10.77;;;6.93;;
22531;SDS011;11432;46.924;7.114;2023-01-29T04:07:23;10.05;;;6.43;;
22531;SDS011;11432;46.924;7.114;2023-01-29T04:10:02;11.48;;;7.55;;
22531;SDS011;11432;46.924;7.114;2023-01-29T04:12:40;11.73;;;7.15;;
22531;SDS011;11432;46.924;7.114;2023-01-29T04:15:12;12.10;;;7.25;;
22531;SDS011;11432;46.924;7.114;2023-01-29T04:17:40;14.55;;;7.53;;
22531;SDS011;11432;46.924;7.114;2023-01-29T04:20:08;10.82;;;6.95;;
22531;SDS011;11432;46.924;7.114;2023-01-29T04:22:36;10.40;;;7.15;;
22531;SDS011;11432;46.924;7.114;2023-01-29T04:25:12;11.73;;;7.03;;
22531;SDS011;11432;46.924;7.114;2023-01-29T04:28:07;11.43;;;7.13;;
22531;SDS011;11432;46.924;7.114;2023-01-29T04:36:14;11.52;;;7.18;;
22531;SDS011;11432;46.924;7.114;2023-01-29T04:49:44;11.15;;;7.40;;
22531;SDS011;11432;46.924;7.114;2023-01-29T05:00:11;10.98;;;7.70;;
22531;SDS011;11432;46.924;7.114;2023-01-29T05:02:51;11.65;;;7.25;;
22531;SDS011;11432;46.924;7.114;2023-01-29T05:05:18;11.18;;;7.57;;
22531;SDS011;11432;46.924;7.114;2023-01-29T05:07:44;11.40;;;7.85;;
22531;SDS011;11432;46.924;7.114;2023-01-29T05:10:11;11.70;;;7.93;;
22531;SDS011;11432;46.924;7.114;2023-01-29T05:12:38;11.75;;;7.57;;
22531;SDS011;11432;46.924;7.114;2023-01-29T05:15:08;14.18;;;7.93;;
22531;SDS011;11432;46.924;7.114;2023-01-29T05:17:38;15.73;;;9.20;;
22531;SDS011;11432;46.924;7.114;2023-01-29T05:20:04;13.73;;;8.45;;
22531;SDS011;11432;46.924;7.114;2023-01-29T05:22:31;12.48;;;8.00;;
22531;SDS011;11432;46.924;7.114;2023-01-29T05:25:00;11.43;;;7.55;;
22531;SDS011;11432;46.924;7.114;2023-01-29T05:27:30;13.48;;;7.65;;
22531;SDS011;11432;46.924;7.114;2023-01-29T05:30:17;12.90;;;8.43;;
22531;SDS011;11432;46.924;7.114;2023-01-29T05:32:42;11.60;;;7.65;;
22531;SDS011;11432;46.924;7.114;2023-01-29T05:35:08;12.27;;;7.57;;
22531;SDS011;11432;46.924;7.114;2023-01-29T05:37:34;13.88;;;8.45;;
22531;SDS011;11432;46.924;7.114;2023-01-29T05:39:59;11.25;;;7.22;;
22531;SDS011;11432;46.924;7.114;2023-01-29T05:42:25;11.15;;;7.47;;
22531;SDS011;11432;46.924;7.114;2023-01-29T05:44:51;11.10;;;7.45;;
22531;SDS011;11432;46.924;7.114;2023-01-29T05:47:19;12.63;;;8.00;;
22531;SDS011;11432;46.924;7.114;2023-01-29T05:49:45;13.10;;;8.77;;
22531;SDS011;11432;46.924;7.114;2023-01-29T05:52:11;12.48;;;8.60;;
22531;SDS011;11432;46.924;7.114;2023-01-29T05:54:37;12.25;;;7.80;;
22531;SDS011;11432;46.924;7.114;2023-01-29T05:57:02;12.13;;;7.97;;
22531;SDS011;11432;46.924;7.114;2023-01-29T05:59:28;11.38;;;7.43;;
22531;SDS011;11432;46.924;7.114;2023-01-29T06:01:55;12.80;;;8.48;;
22531;SDS011;11432;46.924;7.114;2023-01-29T06:04:21;12.52;;;7.97;;
22531;SDS011;11432;46.924;7.114;2023-01-29T06:06:47;12.70;;;7.55;;
22531;SDS011;11432;46.924;7.114;2023-01-29T06:09:13;13.45;;;8.23;;
22531;SDS011;11432;46.924;7.114;2023-01-29T06:11:38;12.98;;;7.95;;
22531;SDS011;11432;46.924;7.114;2023-01-29T06:14:04;11.57;;;7.57;;
22531;SDS011;11432;46.924;7.114;2023-01-29T06:16:30;13.15;;;7.88;;
22531;SDS011;11432;46.924;7.114;2023-01-29T06:18:56;11.77;;;8.13;;
22531;SDS011;11432;46.924;7.114;2023-01-29T06:21:21;13.77;;;8.20;;
22531;SDS011;11432;46.924;7.114;2023-01-29T06:23:47;11.68;;;7.75;;
22531;SDS011;11432;46.924;7.114;2023-01-29T06:26:13;13.50;;;8.55;;
22531;SDS011;11432;46.924;7.114;2023-01-29T06:28:40;11.52;;;7.68;;
22531;SDS011;11432;46.924;7.114;2023-01-29T06:31:06;11.25;;;7.57;;
22531;SDS011;11432;46.924;7.114;2023-01-29T06:33:32;10.68;;;7.53;;
22531;SDS011;11432;46.924;7.114;2023-01-29T06:35:59;12.07;;;8.18;;
22531;SDS011;11432;46.924;7.114;2023-01-29T06:38:26;12.52;;;8.10;;
22531;SDS011;11432;46.924;7.114;2023-01-29T06:40:52;12.48;;;7.80;;
22531;SDS011;11432;46.924;7.114;2023-01-29T06:43:19;11.63;;;7.72;;
22531;SDS011;11432;46.924;7.114;2023-01-29T06:45:46;11.55;;;6.93;;
22531;SDS011;11432;46.924;7.114;2023-01-29T06:48:13;12.52;;;7.88;;
22531;SDS011;11432;46.924;7.114;2023-01-29T06:50:39;12.75;;;8.13;;
22531;SDS011;11432;46.924;7.114;2023-01-29T06:53:04;14.75;;;8.30;;
22531;SDS011;11432;46.924;7.114;2023-01-29T06:55:30;10.98;;;7.07;;
22531;SDS011;11432;46.924;7.114;2023-01-29T06:57:55;11.25;;;7.03;;
22531;SDS011;11432;46.924;7.114;2023-01-29T07:00:21;11.77;;;7.60;;
22531;SDS011;11432;46.924;7.114;2023-01-29T07:02:49;10.70;;;7.30;;
22531;SDS011;11432;46.924;7.114;2023-01-29T07:05:15;12.27;;;7.20;;
22531;SDS011;11432;46.924;7.114;2023-01-29T07:07:41;10.98;;;7.25;;
22531;SDS011;11432;46.924;7.114;2023-01-29T07:10:07;12.07;;;7.47;;
22531;SDS011;11432;46.924;7.114;2023-01-29T07:12:33;11.07;;;6.70;;
22531;SDS011;11432;46.924;7.114;2023-01-29T07:14:58;11.77;;;7.43;;
22531;SDS011;11432;46.924;7.114;2023-01-29T07:17:24;10.73;;;6.72;;
22531;SDS011;11432;46.924;7.114;2023-01-29T07:19:49;12.05;;;7.53;;
22531;SDS011;11432;46.924;7.114;2023-01-29T07:22:15;11.70;;;7.07;;
22531;SDS011;11432;46.924;7.114;2023-01-29T07:24:41;11.60;;;7.70;;
22531;SDS011;11432;46.924;7.114;2023-01-29T07:27:06;12.18;;;7.70;;
22531;SDS011;11432;46.924;7.114;2023-01-29T07:29:32;11.93;;;7.32;;
22531;SDS011;11432;46.924;7.114;2023-01-29T07:31:58;11.95;;;7.95;;
22531;SDS011;11432;46.924;7.114;2023-01-29T07:34:23;11.55;;;7.43;;
22531;SDS011;11432;46.924;7.114;2023-01-29T07:36:51;10.40;;;7.25;;
22531;SDS011;11432;46.924;7.114;2023-01-29T07:39:17;10.48;;;6.75;;
22531;SDS011;11432;46.924;7.114;2023-01-29T07:41:43;10.60;;;6.90;;
22531;SDS011;11432;46.924;7.114;2023-01-29T07:44:08;11.80;;;7.50;;
22531;SDS011;11432;46.924;7.114;2023-01-29T07:46:34;10.73;;;6.95;;
22531;SDS011;11432;46.924;7.114;2023-01-29T07:49:00;11.68;;;7.38;;
22531;SDS011;11432;46.924;7.114;2023-01-29T07:51:25;11.13;;;7.47;;
22531;SDS011;11432;46.924;7.114;2023-01-29T07:53:51;10.95;;;7.07;;
22531;SDS011;11432;46.924;7.114;2023-01-29T07:56:17;9.98;;;6.35;;
22531;SDS011;11432;46.924;7.114;2023-01-29T07:58:42;9.93;;;6.80;;
22531;SDS011;11432;46.924;7.114;2023-01-29T08:01:08;11.00;;;7.35;;
22531;SDS011;11432;46.924;7.114;2023-01-29T08:03:34;11.75;;;7.25;;
22531;SDS011;11432;46.924;7.114;2023-01-29T08:06:00;11.77;;;7.07;;
22531;SDS011;11432;46.924;7.114;2023-01-29T08:08:26;12.27;;;7.18;;
22531;SDS011;11432;46.924;7.114;2023-01-29T08:10:52;11.77;;;7.30;;
22531;SDS011;11432;46.924;7.114;2023-01-29T08:13:17;11.45;;;7.35;;
22531;SDS011;11432;46.924;7.114;2023-01-29T08:15:43;10.52;;;7.22;;
22531;SDS011;11432;46.924;7.114;2023-01-29T08:18:09;10.95;;;6.80;;
22531;SDS011;11432;46.924;7.114;2023-01-29T08:20:36;12.35;;;7.93;;
22531;SDS011;11432;46.924;7.114;2023-01-29T08:23:02;11.05;;;6.90;;
22531;SDS011;11432;46.924;7.114;2023-01-29T08:25:30;12.75;;;7.20;;
22531;SDS011;11432;46.924;7.114;2023-01-29T08:27:56;10.27;;;6.55;;
22531;SDS011;11432;46.924;7.114;2023-01-29T08:30:24;10.90;;;7.40;;
22531;SDS011;11432;46.924;7.114;2023-01-29T08:32:50;10.35;;;7.22;;
22531;SDS011;11432;46.924;7.114;2023-01-29T08:35:16;10.73;;;7.13;;
22531;SDS011;11432;46.924;7.114;2023-01-29T08:37:41;11.15;;;7.20;;
22531;SDS011;11432;46.924;7.114;2023-01-29T08:40:07;15.20;;;9.00;;
22531;SDS011;11432;46.924;7.114;2023-01-29T08:42:34;18.33;;;9.95;;
22531;SDS011;11432;46.924;7.114;2023-01-29T08:45:00;20.88;;;10.05;;
22531;SDS011;11432;46.924;7.114;2023-01-29T08:47:26;18.15;;;9.27;;
22531;SDS011;11432;46.924;7.114;2023-01-29T08:49:51;15.45;;;8.50;;
22531;SDS011;11432;46.924;7.114;2023-01-29T08:52:17;12.88;;;7.18;;
22531;SDS011;11432;46.924;7.114;2023-01-29T08:54:42;11.23;;;5.28;;
22531;SDS011;11432;46.924;7.114;2023-01-29T08:57:08;11.95;;;7.55;;
22531;SDS011;11432;46.924;7.114;2023-01-29T08:59:33;12.77;;;7.93;;
22531;SDS011;11432;46.924;7.114;2023-01-29T09:01:59;11.35;;;6.75;;
22531;SDS011;11432;46.924;7.114;2023-01-29T09:04:25;14.75;;;8.10;;
22531;SDS011;11432;46.924;7.114;2023-01-29T09:06:50;10.65;;;7.28;;
22531;SDS011;11432;46.924;7.114;2023-01-29T09:09:16;13.40;;;8.15;;
22531;SDS011;11432;46.924;7.114;2023-01-29T09:11:42;11.63;;;7.65;;
22531;SDS011;11432;46.924;7.114;2023-01-29T09:14:08;13.75;;;8.10;;
22531;SDS011;11432;46.924;7.114;2023-01-29T09:16:36;12.95;;;7.45;;
22531;SDS011;11432;46.924;7.114;2023-01-29T09:19:01;12.23;;;7.85;;
22531;SDS011;11432;46.924;7.114;2023-01-29T09:21:27;10.63;;;7.43;;
22531;SDS011;11432;46.924;7.114;2023-01-29T09:23:52;12.68;;;8.00;;
22531;SDS011;11432;46.924;7.114;2023-01-29T09:26:18;12.30;;;7.97;;
22531;SDS011;11432;46.924;7.114;2023-01-29T09:28:44;14.10;;;8.23;;
22531;SDS011;11432;46.924;7.114;2023-01-29T09:31:09;10.93;;;7.35;;
22531;SDS011;11432;46.924;7.114;2023-01-29T09:33:35;11.02;;;7.15;;
22531;SDS011;11432;46.924;7.114;2023-01-29T09:36:01;11.93;;;7.95;;
22531;SDS011;11432;46.924;7.114;2023-01-29T09:38:27;11.93;;;8.32;;
22531;SDS011;11432;46.924;7.114;2023-01-29T09:47:06;11.98;;;8.18;;
22531;SDS011;11432;46.924;7.114;2023-01-29T09:49:14;11.75;;;7.82;;
22531;SDS011;11432;46.924;7.114;2023-01-29T09:57:45;11.77;;;7.32;;
22531;SDS011;11432;46.924;7.114;2023-01-29T10:00:34;11.85;;;7.70;;
22531;SDS011;11432;46.924;7.114;2023-01-29T10:06:06;12.93;;;8.40;;
22531;SDS011;11432;46.924;7.114;2023-01-29T10:09:08;14.75;;;8.50;;
22531;SDS011;11432;46.924;7.114;2023-01-29T10:22:47;12.73;;;8.45;;
22531;SDS011;11432;46.924;7.114;2023-01-29T10:25:24;12.55;;;8.18;;
22531;SDS011;11432;46.924;7.114;2023-01-29T10:27:53;11.63;;;8.10;;
22531;SDS011;11432;46.924;7.114;2023-01-29T10:33:08;11.93;;;8.68;;
22531;SDS011;11432;46.924;7.114;2023-01-29T10:35:45;12.02;;;8.32;;
22531;SDS011;11432;46.924;7.114;2023-01-29T10:43:49;11.63;;;7.85;;
22531;SDS011;11432;46.924;7.114;2023-01-29T10:49:17;12.38;;;8.63;;
22531;SDS011;11432;46.924;7.114;2023-01-29T10:57:39;11.45;;;7.75;;
22531;SDS011;11432;46.924;7.114;2023-01-29T11:00:29;12.90;;;8.05;;
22531;SDS011;11432;46.924;7.114;2023-01-29T11:03:07;11.27;;;7.50;;
22531;SDS011;11432;46.924;7.114;2023-01-29T11:06:08;12.00;;;7.55;;
22531;SDS011;11432;46.924;7.114;2023-01-29T11:09:05;13.50;;;8.93;;
22531;SDS011;11432;46.924;7.114;2023-01-29T11:11:53;12.40;;;8.63;;
22531;SDS011;11432;46.924;7.114;2023-01-29T11:14:28;12.57;;;8.23;;
22531;SDS011;11432;46.924;7.114;2023-01-29T11:17:12;12.40;;;7.75;;
22531;SDS011;11432;46.924;7.114;2023-01-29T11:19:41;12.50;;;8.18;;
22531;SDS011;11432;46.924;7.114;2023-01-29T11:22:12;10.18;;;6.93;;
22531;SDS011;11432;46.924;7.114;2023-01-29T11:24:43;12.10;;;7.75;;
22531;SDS011;11432;46.924;7.114;2023-01-29T11:27:14;11.55;;;7.60;;
22531;SDS011;11432;46.924;7.114;2023-01-29T11:29:47;11.25;;;7.15;;
22531;SDS011;11432;46.924;7.114;2023-01-29T11:32:23;11.57;;;7.60;;
22531;SDS011;11432;46.924;7.114;2023-01-29T11:35:19;10.77;;;7.38;;
22531;SDS011;11432;46.924;7.114;2023-01-29T11:37:46;11.45;;;7.88;;
22531;SDS011;11432;46.924;7.114;2023-01-29T11:42:47;11.05;;;8.05;;
22531;SDS011;11432;46.924;7.114;2023-01-29T11:45:24;13.32;;;8.75;;
22531;SDS011;11432;46.924;7.114;2023-01-29T11:47:52;13.38;;;9.07;;
22531;SDS011;11432;46.924;7.114;2023-01-29T11:50:21;11.23;;;7.75;;
22531;SDS011;11432;46.924;7.114;2023-01-29T11:55:15;13.55;;;8.68;;
22531;SDS011;11432;46.924;7.114;2023-01-29T12:00:31;12.07;;;8.23;;
22531;SDS011;11432;46.924;7.114;2023-01-29T12:03:12;11.82;;;8.18;;
22531;SDS011;11432;46.924;7.114;2023-01-29T12:06:01;13.68;;;8.43;;
22531;SDS011;11432;46.924;7.114;2023-01-29T12:08:35;12.65;;;8.60;;
22531;SDS011;11432;46.924;7.114;2023-01-29T12:11:06;12.05;;;8.35;;
22531;SDS011;11432;46.924;7.114;2023-01-29T12:13:36;13.13;;;8.43;;
22531;SDS011;11432;46.924;7.114;2023-01-29T12:19:06;12.27;;;8.23;;
22531;SDS011;11432;46.924;7.114;2023-01-29T12:26:57;13.48;;;9.00;;
22531;SDS011;11432;46.924;7.114;2023-01-29T12:36:00;14.77;;;9.00;;
22531;SDS011;11432;46.924;7.114;2023-01-29T12:38:31;13.60;;;9.05;;
22531;SDS011;11432;46.924;7.114;2023-01-29T12:41:03;13.65;;;8.75;;
22531;SDS011;11432;46.924;7.114;2023-01-29T12:43:42;12.38;;;9.25;;
22531;SDS011;11432;46.924;7.114;2023-01-29T12:46:20;13.80;;;8.63;;
22531;SDS011;11432;46.924;7.114;2023-01-29T12:48:50;13.52;;;9.15;;
22531;SDS011;11432;46.924;7.114;2023-01-29T12:51:19;11.80;;;8.60;;
22531;SDS011;11432;46.924;7.114;2023-01-29T12:53:59;12.25;;;8.75;;
22531;SDS011;11432;46.924;7.114;2023-01-29T12:56:34;13.88;;;9.43;;
22531;SDS011;11432;46.924;7.114;2023-01-29T13:04:47;13.85;;;9.32;;
22531;SDS011;11432;46.924;7.114;2023-01-29T13:07:32;13.27;;;8.95;;
22531;SDS011;11432;46.924;7.114;2023-01-29T13:10:12;13.50;;;8.65;;
22531;SDS011;11432;46.924;7.114;2023-01-29T13:15:21;14.07;;;8.90;;
22531;SDS011;11432;46.924;7.114;2023-01-29T13:18:13;13.30;;;8.60;;
22531;SDS011;11432;46.924;7.114;2023-01-29T13:20:59;13.75;;;8.80;;
22531;SDS011;11432;46.924;7.114;2023-01-29T13:24:12;12.95;;;8.73;;
22531;SDS011;11432;46.924;7.114;2023-01-29T13:26:17;15.30;;;9.70;;
22531;SDS011;11432;46.924;7.114;2023-01-29T13:28:45;13.02;;;8.45;;
22531;SDS011;11432;46.924;7.114;2023-01-29T13:33:42;13.10;;;9.00;;
22531;SDS011;11432;46.924;7.114;2023-01-29T13:36:16;14.25;;;9.32;;
22531;SDS011;11432;46.924;7.114;2023-01-29T13:38:58;18.92;;;9.35;;
22531;SDS011;11432;46.924;7.114;2023-01-29T13:41:38;14.45;;;9.35;;
22531;SDS011;11432;46.924;7.114;2023-01-29T13:44:19;13.07;;;8.52;;
22531;SDS011;11432;46.924;7.114;2023-01-29T13:46:57;12.32;;;8.80;;
22531;SDS011;11432;46.924;7.114;2023-01-29T13:49:24;16.02;;;10.20;;
22531;SDS011;11432;46.924;7.114;2023-01-29T14:02:46;15.90;;;9.50;;
22531;SDS011;11432;46.924;7.114;2023-01-29T14:05:42;14.73;;;9.40;;
22531;SDS011;11432;46.924;7.114;2023-01-29T14:13:43;11.60;;;8.05;;
22531;SDS011;11432;46.924;7.114;2023-01-29T14:18:36;12.25;;;8.75;;
22531;SDS011;11432;46.924;7.114;2023-01-29T14:23:38;11.75;;;7.68;;
22531;SDS011;11432;46.924;7.114;2023-01-29T14:26:21;12.18;;;8.15;;
22531;SDS011;11432;46.924;7.114;2023-01-29T14:28:55;13.27;;;8.27;;
22531;SDS011;11432;46.924;7.114;2023-01-29T14:31:35;12.57;;;8.40;;
22531;SDS011;11432;46.924;7.114;2023-01-29T14:34:05;14.48;;;9.15;;
22531;SDS011;11432;46.924;7.114;2023-01-29T14:36:39;12.63;;;8.77;;
22531;SDS011;11432;46.924;7.114;2023-01-29T14:39:17;12.10;;;8.32;;
22531;SDS011;11432;46.924;7.114;2023-01-29T14:41:48;12.43;;;8.65;;
22531;SDS011;11432;46.924;7.114;2023-01-29T14:49:57;12.75;;;8.73;;
22531;SDS011;11432;46.924;7.114;2023-01-29T14:52:45;13.52;;;8.60;;
22531;SDS011;11432;46.924;7.114;2023-01-29T14:55:18;11.68;;;7.53;;
22531;SDS011;11432;46.924;7.114;2023-01-29T14:57:47;11.35;;;7.32;;
22531;SDS011;11432;46.924;7.114;2023-01-29T15:00:16;12.48;;;7.85;;
22531;SDS011;11432;46.924;7.114;2023-01-29T15:02:48;11.60;;;7.63;;
22531;SDS011;11432;46.924;7.114;2023-01-29T15:05:18;11.48;;;7.97;;
22531;SDS011;11432;46.924;7.114;2023-01-29T15:07:52;11.32;;;7.70;;
22531;SDS011;11432;46.924;7.114;2023-01-29T15:10:24;12.35;;;8.05;;
22531;SDS011;11432;46.924;7.114;2023-01-29T15:12:53;12.98;;;7.97;;
22531;SDS011;11432;46.924;7.114;2023-01-29T15:15:35;12.07;;;8.13;;
22531;SDS011;11432;46.924;7.114;2023-01-29T15:20:40;14.88;;;9.50;;
22531;SDS011;11432;46.924;7.114;2023-01-29T15:23:22;13.93;;;9.15;;
22531;SDS011;11432;46.924;7.114;2023-01-29T15:25:56;13.90;;;8.82;;
22531;SDS011;11432;46.924;7.114;2023-01-29T15:28:25;12.98;;;8.75;;
22531;SDS011;11432;46.924;7.114;2023-01-29T15:30:55;15.77;;;9.82;;
22531;SDS011;11432;46.924;7.114;2023-01-29T15:33:23;13.52;;;9.10;;
22531;SDS011;11432;46.924;7.114;2023-01-29T15:35:54;12.75;;;7.80;;
22531;SDS011;11432;46.924;7.114;2023-01-29T15:38:25;12.23;;;7.95;;
22531;SDS011;11432;46.924;7.114;2023-01-29T15:41:01;14.02;;;9.05;;
22531;SDS011;11432;46.924;7.114;2023-01-29T15:43:41;13.30;;;9.23;;
22531;SDS011;11432;46.924;7.114;2023-01-29T15:46:15;13.93;;;8.98;;
22531;SDS011;11432;46.924;7.114;2023-01-29T15:48:48;13.32;;;8.82;;
22531;SDS011;11432;46.924;7.114;2023-01-29T15:51:16;14.77;;;8.50;;
22531;SDS011;11432;46.924;7.114;2023-01-29T15:53:46;11.93;;;7.85;;
22531;SDS011;11432;46.924;7.114;2023-01-29T15:56:13;14.38;;;8.60;;
22531;SDS011;11432;46.924;7.114;2023-01-29T15:58:42;14.18;;;9.05;;
22531;SDS011;11432;46.924;7.114;2023-01-29T16:01:12;14.95;;;9.35;;
22531;SDS011;11432;46.924;7.114;2023-01-29T16:03:38;15.02;;;9.35;;
22531;SDS011;11432;46.924;7.114;2023-01-29T16:06:05;14.82;;;9.73;;
22531;SDS011;11432;46.924;7.114;2023-01-29T16:08:31;13.55;;;9.35;;
22531;SDS011;11432;46.924;7.114;2023-01-29T16:10:59;14.70;;;9.57;;
22531;SDS011;11432;46.924;7.114;2023-01-29T16:13:28;16.77;;;9.82;;
22531;SDS011;11432;46.924;7.114;2023-01-29T16:16:19;14.07;;;9.43;;
22531;SDS011;11432;46.924;7.114;2023-01-29T16:18:44;14.40;;;9.32;;
22531;SDS011;11432;46.924;7.114;2023-01-29T16:24:04;16.23;;;9.63;;
22531;SDS011;11432;46.924;7.114;2023-01-29T16:26:35;16.15;;;10.45;;
22531;SDS011;11432;46.924;7.114;2023-01-29T16:29:06;16.77;;;10.02;;
22531;SDS011;11432;46.924;7.114;2023-01-29T16:31:34;14.65;;;9.65;;
22531;SDS011;11432;46.924;7.114;2023-01-29T16:34:08;15.50;;;9.90;;
22531;SDS011;11432;46.924;7.114;2023-01-29T16:36:43;14.53;;;10.10;;
22531;SDS011;11432;46.924;7.114;2023-01-29T16:39:16;15.38;;;9.48;;
22531;SDS011;11432;46.924;7.114;2023-01-29T16:41:44;16.20;;;9.82;;
22531;SDS011;11432;46.924;7.114;2023-01-29T16:44:36;15.38;;;10.13;;
22531;SDS011;11432;46.924;7.114;2023-01-29T16:53:10;16.25;;;9.95;;
22531;SDS011;11432;46.924;7.114;2023-01-29T16:55:43;16.63;;;10.35;;
22531;SDS011;11432;46.924;7.114;2023-01-29T16:58:13;15.98;;;10.32;;
22531;SDS011;11432;46.924;7.114;2023-01-29T17:00:42;16.48;;;10.80;;
22531;SDS011;11432;46.924;7.114;2023-01-29T17:03:13;18.25;;;11.60;;
22531;SDS011;11432;46.924;7.114;2023-01-29T17:05:41;14.00;;;9.82;;
22531;SDS011;11432;46.924;7.114;2023-01-29T17:08:12;18.13;;;11.32;;
22531;SDS011;11432;46.924;7.114;2023-01-29T17:10:47;17.38;;;11.82;;
22531;SDS011;11432;46.924;7.114;2023-01-29T17:13:17;17.83;;;11.73;;
22531;SDS011;11432;46.924;7.114;2023-01-29T17:15:49;19.33;;;12.07;;
22531;SDS011;11432;46.924;7.114;2023-01-29T17:18:18;19.00;;;11.55;;
22531;SDS011;11432;46.924;7.114;2023-01-29T17:20:48;15.55;;;10.32;;
22531;SDS011;11432;46.924;7.114;2023-01-29T17:23:14;15.07;;;10.27;;
22531;SDS011;11432;46.924;7.114;2023-01-29T17:25:41;17.13;;;10.35;;
22531;SDS011;11432;46.924;7.114;2023-01-29T17:28:08;16.23;;;11.43;;
22531;SDS011;11432;46.924;7.114;2023-01-29T17:30:39;18.02;;;11.27;;
22531;SDS011;11432;46.924;7.114;2023-01-29T17:33:12;16.50;;;11.27;;
22531;SDS011;11432;46.924;7.114;2023-01-29T17:35:40;17.90;;;11.50;;
22531;SDS011;11432;46.924;7.114;2023-01-29T17:38:14;17.77;;;11.10;;
22531;SDS011;11432;46.924;7.114;2023-01-29T17:41:01;17.13;;;11.20;;
22531;SDS011;11432;46.924;7.114;2023-01-29T17:43:35;16.38;;;10.55;;
22531;SDS011;11432;46.924;7.114;2023-01-29T17:46:01;16.42;;;10.77;;
22531;SDS011;11432;46.924;7.114;2023-01-29T17:48:27;17.60;;;10.93;;